Historique des mesures à Cassis (13260), France
Quotidien Résumé Aout 4, 2020 Unités:  Métrique    US   Métrique/US
Quotidien Hebdomadaire Mensuel Annuel
  Maximum: Minimum: Moyenne:
Température: 26.9 °C 18.4 °C 22.4 °C
Point de rosée: 19 °C 13.3 °C 16.2 °C
Humidité: 79% 58% 68%
Vitesse du vent: 18.4km/h 0km/h 2.2km/h
Rafales: 18.4km/h - -
Vent- - SSW
Pression: 1023.1 hPa 1020.6 hPa -
Précipitations: 0.0 mm    
Historical Graphs
 
 
Mesures pour : Aout 4, 2020
Heure Temperature Point de rosée Pression Vent Vitesse du vent Rafales Humidité Pluie (par heure)
00:11 20.1 °C 15.1 °C 1021.0 hPa Calm   2.5 km/h 73% 0.0 mm
01:12 19.9 °C 14.7 °C 1021.3 hPa Calm     72% 0.0 mm
02:11 19.5 °C 14.1 °C 1021.2 hPa Calm   1.8 km/h 71% 0.0 mm
03:11 19.6 °C 13.8 °C 1020.8 hPa NW 1.4 km/h 3.2 km/h 69% 0.0 mm
04:12 19.2 °C 13.6 °C 1020.6 hPa Calm   2.2 km/h 70% 0.0 mm
05:11 18.6 °C 13.9 °C 1020.8 hPa Calm   2.5 km/h 74% 0.0 mm
06:11 18.4 °C 14.3 °C 1020.9 hPa Calm   3.6 km/h 77% 0.0 mm
07:11 18.4 °C 14.7 °C 1021.4 hPa Calm   4 km/h 79% 0.0 mm
08:12 21.1 °C 16.2 °C 1021.6 hPa Calm     74% 0.0 mm
09:12 21.3 °C 16.4 °C 1022.0 hPa Calm   6.5 km/h 74% 0.0 mm
10:11 22.1 °C 16.8 °C 1022.6 hPa Calm   5.8 km/h 72% 0.0 mm
11:12 24.3 °C 18.7 °C 1023.1 hPa South 2.9 km/h 12.2 km/h 71% 0.0 mm
12:11 26.1 °C 19 °C 1023.1 hPa SW 6.1 km/h 10.1 km/h 65% 0.0 mm
13:12 26.9 °C 18.8 °C 1022.9 hPa South 6.1 km/h 11.9 km/h 61% 0.0 mm
14:11 26.9 °C 17.9 °C 1022.5 hPa SE 6.5 km/h 11.2 km/h 58% 0.0 mm
15:12 26.9 °C 18.2 °C 1022.2 hPa ESE 4 km/h 9.7 km/h 59% 0.0 mm
16:12 26.5 °C 18.2 °C 1021.9 hPa SSW 6.8 km/h 14.4 km/h 60% 0.0 mm
17:11 26.1 °C 18.3 °C 1021.5 hPa SW 18.4 km/h 18.4 km/h 62% 0.0 mm
18:11 25.5 °C 18.4 °C 1021.1 hPa Calm   12.6 km/h 65% 0.0 mm
19:12 24.9 °C 17.4 °C 1020.7 hPa Calm   6.5 km/h 63% 0.0 mm
20:11 23.4 °C 16.7 °C 1020.7 hPa Calm     66% 0.0 mm
21:11 21.8 °C 15.9 °C 1020.9 hPa Calm     69% 0.0 mm
22:12 20.4 °C 14.5 °C 1020.9 hPa Calm     69% 0.0 mm
23:12 19.6 °C 13.3 °C 1020.6 hPa Calm   2.9 km/h 67% 0.0 mm
Observations météo à CASSIS
WU-History script by Weather Underground - 2 mb